createdAt,value
2019-03-26T00:00:31.532Z,14.80
2019-03-26T00:03:00.713Z,14.70
2019-03-26T00:05:29.927Z,14.70
2019-03-26T00:07:59.086Z,14.60
2019-03-26T00:10:28.243Z,14.50
2019-03-26T00:12:58.486Z,14.40
2019-03-26T00:15:27.662Z,14.30
2019-03-26T00:17:58.002Z,14.20
2019-03-26T00:20:27.160Z,14.20
2019-03-26T00:22:56.370Z,14.10
2019-03-26T00:25:25.562Z,14.00
2019-03-26T00:27:54.709Z,13.90
2019-03-26T00:30:23.945Z,13.90
2019-03-26T00:32:53.174Z,13.80
2019-03-26T00:35:22.337Z,13.70
2019-03-26T00:37:51.505Z,13.60
2019-03-26T00:40:20.730Z,13.60
2019-03-26T00:42:49.900Z,13.50
2019-03-26T00:45:19.076Z,13.50
2019-03-26T00:47:48.322Z,13.40
2019-03-26T00:50:17.514Z,13.40
2019-03-26T00:52:46.693Z,13.30
2019-03-26T00:55:22.407Z,13.20
2019-03-26T00:57:46.860Z,13.20
2019-03-26T01:00:19.343Z,13.10
2019-03-26T01:02:48.627Z,13.00
2019-03-26T01:05:18.030Z,13.00
2019-03-26T01:07:47.300Z,12.90
2019-03-26T01:10:22.468Z,12.90
2019-03-26T01:12:51.654Z,12.80
2019-03-26T01:15:20.826Z,12.70
2019-03-26T01:17:49.998Z,12.70
2019-03-26T01:20:19.186Z,12.70
2019-03-26T01:22:48.342Z,12.60
2019-03-26T01:25:17.581Z,12.60
2019-03-26T01:27:46.743Z,12.50
2019-03-26T01:30:15.917Z,12.50
2019-03-26T01:32:45.092Z,12.40
2019-03-26T01:35:14.323Z,12.40
2019-03-26T01:37:43.473Z,12.40
2019-03-26T01:40:12.646Z,12.30
2019-03-26T01:42:42.001Z,12.30
2019-03-26T01:45:11.160Z,12.20
2019-03-26T01:47:40.348Z,12.20
2019-03-26T01:50:09.566Z,12.10
2019-03-26T01:52:38.713Z,12.20
2019-03-26T01:55:07.950Z,12.10
2019-03-26T01:57:37.118Z,12.10
2019-03-26T02:00:06.289Z,12.10
2019-03-26T02:02:35.616Z,12.10
2019-03-26T02:05:06.007Z,12.00
2019-03-26T02:07:35.176Z,12.00
2019-03-26T02:10:04.488Z,12.00
2019-03-26T02:12:33.740Z,12.00
2019-03-26T02:15:03.023Z,12.00
2019-03-26T02:17:32.274Z,12.00
2019-03-26T02:20:01.573Z,11.90
2019-03-26T02:22:30.911Z,11.90
2019-03-26T02:25:00.342Z,11.90
2019-03-26T02:27:29.620Z,11.90
2019-03-26T02:29:58.762Z,11.90
2019-03-26T02:32:27.924Z,11.90
2019-03-26T02:35:17.842Z,11.90
2019-03-26T02:37:40.006Z,11.90
2019-03-26T02:40:09.228Z,11.90
2019-03-26T02:42:38.460Z,11.80
2019-03-26T02:45:08.520Z,11.80
2019-03-26T02:47:38.120Z,11.80
2019-03-26T02:50:08.212Z,11.80
2019-03-26T02:52:37.468Z,11.70
2019-03-26T02:55:06.695Z,11.70
2019-03-26T02:57:37.539Z,11.70
2019-03-26T03:00:07.806Z,11.70
2019-03-26T03:02:37.026Z,11.70
2019-03-26T03:05:06.261Z,11.70
2019-03-26T03:07:35.496Z,11.60
2019-03-26T03:10:08.103Z,11.60
2019-03-26T03:12:37.311Z,11.60
2019-03-26T03:15:07.879Z,11.60
2019-03-26T03:17:37.093Z,11.70
2019-03-26T03:20:06.342Z,11.60
2019-03-26T03:22:35.582Z,11.60
2019-03-26T03:25:05.691Z,11.60
2019-03-26T03:27:34.847Z,11.60
2019-03-26T03:30:05.743Z,11.50
2019-03-26T03:32:35.788Z,11.60
2019-03-26T03:35:07.438Z,11.50
2019-03-26T03:37:36.614Z,11.50
2019-03-26T03:40:06.052Z,11.60
2019-03-26T03:42:35.549Z,11.50
2019-03-26T03:45:07.748Z,11.50
2019-03-26T03:47:36.973Z,11.50
2019-03-26T03:50:07.630Z,11.50
2019-03-26T03:52:38.956Z,11.50
2019-03-26T03:55:09.732Z,11.50
2019-03-26T03:57:39.068Z,11.50
2019-03-26T04:00:11.550Z,11.40
2019-03-26T04:02:40.788Z,11.40
2019-03-26T04:05:09.952Z,11.40
2019-03-26T04:07:42.408Z,11.40
2019-03-26T04:10:31.691Z,11.50
2019-03-26T04:13:02.540Z,11.50
2019-03-26T04:15:34.950Z,11.40
2019-03-26T04:18:03.505Z,11.40
2019-03-26T04:20:34.504Z,11.40
2019-03-26T04:23:05.541Z,11.40
2019-03-26T04:25:36.526Z,11.50
2019-03-26T04:28:05.798Z,11.40
2019-03-26T04:30:35.091Z,11.40
2019-03-26T04:33:06.110Z,11.40
2019-03-26T04:35:36.153Z,11.40
2019-03-26T04:38:05.447Z,11.40
2019-03-26T04:40:34.737Z,11.40
2019-03-26T04:43:12.471Z,11.40
2019-03-26T04:45:41.772Z,11.40
2019-03-26T04:48:12.126Z,11.40
2019-03-26T04:50:41.289Z,11.40
2019-03-26T04:53:10.467Z,11.40
2019-03-26T04:55:39.629Z,11.40
2019-03-26T04:58:08.848Z,11.40
2019-03-26T05:00:38.098Z,11.40
2019-03-26T05:03:08.311Z,11.40
2019-03-26T05:05:37.646Z,11.40
2019-03-26T05:08:06.878Z,11.40
2019-03-26T05:10:36.035Z,11.40
2019-03-26T05:13:05.587Z,11.40
2019-03-26T05:15:34.996Z,11.40
2019-03-26T05:18:04.226Z,11.40
2019-03-26T05:20:33.480Z,11.40
2019-03-26T05:23:02.653Z,11.40
2019-03-26T05:25:31.890Z,11.40
2019-03-26T05:28:02.126Z,11.40
2019-03-26T05:30:33.116Z,11.50
2019-03-26T05:33:02.261Z,11.40
2019-03-26T05:35:31.586Z,11.40
2019-03-26T05:38:00.763Z,11.40
2019-03-26T05:40:30.027Z,11.30
2019-03-26T05:42:59.211Z,11.30
2019-03-26T05:45:28.428Z,11.30
2019-03-26T05:47:57.664Z,11.30
2019-03-26T05:50:26.842Z,11.40
2019-03-26T05:52:56.183Z,11.30
2019-03-26T05:55:25.455Z,11.40
2019-03-26T05:57:54.680Z,11.40
2019-03-26T06:00:25.858Z,11.50
2019-03-26T06:02:55.112Z,11.60
2019-03-26T06:05:24.258Z,11.50
2019-03-26T06:07:53.517Z,11.60
2019-03-26T06:10:42.120Z,11.60
2019-03-26T06:13:11.288Z,11.60
2019-03-26T06:15:40.523Z,11.60
2019-03-26T06:18:09.713Z,11.60
2019-03-26T06:20:38.888Z,11.70
2019-03-26T06:23:08.309Z,11.70
2019-03-26T06:25:37.568Z,11.70
2019-03-26T06:28:06.910Z,11.80
2019-03-26T06:30:36.331Z,11.80
2019-03-26T06:33:05.605Z,11.80
2019-03-26T06:35:35.953Z,11.80
2019-03-26T06:38:05.228Z,11.80
2019-03-26T06:40:34.645Z,11.80
2019-03-26T06:43:03.882Z,11.80
2019-03-26T06:45:33.063Z,11.80
2019-03-26T06:48:04.284Z,11.90
2019-03-26T06:50:33.294Z,11.90
2019-03-26T06:53:02.534Z,11.90
2019-03-26T06:55:31.768Z,12.00
2019-03-26T06:58:00.939Z,11.90
2019-03-26T07:00:31.757Z,11.90
2019-03-26T07:03:01.927Z,11.90
2019-03-26T07:05:31.136Z,11.90
2019-03-26T07:08:00.385Z,12.00
2019-03-26T07:10:30.148Z,12.00
2019-03-26T07:12:59.466Z,12.00
2019-03-26T07:15:28.697Z,12.00
2019-03-26T07:17:57.942Z,12.00
2019-03-26T07:20:27.183Z,12.00
2019-03-26T07:22:56.496Z,12.00
2019-03-26T07:25:25.742Z,12.10
2019-03-26T07:27:54.910Z,12.10
2019-03-26T07:30:38.648Z,12.10
2019-03-26T07:33:07.976Z,12.10
2019-03-26T07:35:37.230Z,12.20
2019-03-26T07:38:06.536Z,12.30
2019-03-26T07:40:35.790Z,12.30
2019-03-26T07:43:05.121Z,12.20
2019-03-26T07:45:35.620Z,12.30
2019-03-26T07:48:04.896Z,12.40
2019-03-26T07:50:34.147Z,12.40
2019-03-26T07:53:03.384Z,12.40
2019-03-26T07:55:32.723Z,12.40
2019-03-26T07:58:01.918Z,12.30
2019-03-26T08:00:36.164Z,12.40
2019-03-26T08:03:05.974Z,12.40
2019-03-26T08:05:35.272Z,12.50
2019-03-26T08:08:04.511Z,12.50
2019-03-26T08:10:33.755Z,12.50
2019-03-26T08:13:02.951Z,12.50
2019-03-26T08:15:32.203Z,12.60
2019-03-26T08:18:01.452Z,12.70
2019-03-26T08:20:30.652Z,12.70
2019-03-26T08:22:59.882Z,12.70
2019-03-26T08:25:29.067Z,12.70
2019-03-26T08:27:58.288Z,12.70
2019-03-26T08:30:27.595Z,12.60
2019-03-26T08:32:56.808Z,12.70
2019-03-26T08:35:25.982Z,12.80
2019-03-26T08:37:55.165Z,12.90
2019-03-26T08:40:24.348Z,13.00
2019-03-26T08:42:53.660Z,13.00
2019-03-26T08:45:22.815Z,13.10
2019-03-26T08:47:52.042Z,13.10
2019-03-26T08:50:21.274Z,13.10
2019-03-26T08:52:50.578Z,13.20
2019-03-26T08:55:19.751Z,13.20
2019-03-26T08:57:49.067Z,13.30
2019-03-26T09:00:18.295Z,13.40
2019-03-26T09:02:47.618Z,13.40
2019-03-26T09:05:16.900Z,13.50
2019-03-26T09:07:46.071Z,13.50
2019-03-26T09:10:15.373Z,13.60
2019-03-26T09:12:44.555Z,13.60
2019-03-26T09:15:14.552Z,13.70
2019-03-26T09:17:44.827Z,13.80
2019-03-26T09:20:14.432Z,13.80
2019-03-26T09:22:44.829Z,13.80
2019-03-26T09:25:14.109Z,13.80
2019-03-26T09:27:43.434Z,13.90
2019-03-26T09:30:12.607Z,13.90
2019-03-26T09:32:41.882Z,14.00
2019-03-26T09:35:11.048Z,14.00
2019-03-26T09:37:40.280Z,14.10
2019-03-26T09:40:09.529Z,14.20
2019-03-26T09:42:38.759Z,14.20
2019-03-26T09:45:11.114Z,14.20
2019-03-26T09:47:40.367Z,14.10
2019-03-26T09:50:12.255Z,14.10
2019-03-26T09:52:41.492Z,14.20
2019-03-26T09:55:10.747Z,14.20
2019-03-26T09:57:39.986Z,14.20
2019-03-26T10:00:10.187Z,14.20
2019-03-26T10:02:42.771Z,14.20
2019-03-26T10:05:10.494Z,14.20
2019-03-26T10:07:39.686Z,14.30
2019-03-26T10:10:28.364Z,14.30
2019-03-26T10:12:58.754Z,14.30
2019-03-26T10:15:27.930Z,14.30
2019-03-26T10:17:57.174Z,14.40
2019-03-26T10:20:27.660Z,14.40
2019-03-26T10:22:57.032Z,14.40
2019-03-26T10:25:26.198Z,14.60
2019-03-26T10:27:55.814Z,14.70
2019-03-26T10:30:36.090Z,14.70
2019-03-26T10:33:05.693Z,14.70
2019-03-26T10:35:34.844Z,14.70
2019-03-26T10:38:04.661Z,14.70
2019-03-26T10:40:38.474Z,14.70
2019-03-26T10:43:07.660Z,14.70
2019-03-26T10:45:36.858Z,14.80
2019-03-26T10:48:06.118Z,14.80
2019-03-26T10:50:35.513Z,14.80
2019-03-26T10:53:04.944Z,14.80
2019-03-26T10:55:34.188Z,15.00
2019-03-26T10:58:03.450Z,15.00
2019-03-26T11:00:33.040Z,15.10
2019-03-26T11:03:02.321Z,15.20
2019-03-26T11:05:31.493Z,15.30
2019-03-26T11:08:00.705Z,15.30
2019-03-26T11:10:30.836Z,15.30
2019-03-26T11:13:00.151Z,15.20
2019-03-26T11:15:29.425Z,15.30
2019-03-26T11:17:58.587Z,15.30
2019-03-26T11:20:27.779Z,15.40
2019-03-26T11:22:58.275Z,15.40
2019-03-26T11:25:28.431Z,15.30
2019-03-26T11:27:57.688Z,15.40
2019-03-26T11:30:26.896Z,15.50
2019-03-26T11:32:56.189Z,15.50
2019-03-26T11:35:25.415Z,15.60
2019-03-26T11:37:54.599Z,15.70
2019-03-26T11:40:23.844Z,15.70
2019-03-26T11:42:53.091Z,15.70
2019-03-26T11:45:22.250Z,15.70
2019-03-26T11:48:01.745Z,15.70
2019-03-26T11:50:30.968Z,15.70
2019-03-26T11:53:00.155Z,15.70
2019-03-26T11:55:29.360Z,15.60
2019-03-26T11:57:58.548Z,15.60
2019-03-26T12:00:32.081Z,15.60
2019-03-26T12:03:02.595Z,15.60
2019-03-26T12:05:31.894Z,15.60
2019-03-26T12:08:03.825Z,15.60
2019-03-26T12:10:33.266Z,15.70
2019-03-26T12:13:02.799Z,15.80
2019-03-26T12:15:32.055Z,15.90
2019-03-26T12:18:01.235Z,16.20
2019-03-26T12:20:30.510Z,16.30
2019-03-26T12:23:00.001Z,16.40
2019-03-26T12:25:29.407Z,16.60
2019-03-26T12:27:58.804Z,16.70
2019-03-26T12:30:35.154Z,16.80
2019-03-26T12:33:05.106Z,16.90
2019-03-26T12:35:34.448Z,17.00
2019-03-26T12:38:09.491Z,17.20
2019-03-26T12:40:38.867Z,17.30
2019-03-26T12:43:08.555Z,17.50
2019-03-26T12:45:38.318Z,17.60
2019-03-26T12:48:08.097Z,17.70
2019-03-26T12:50:37.595Z,17.90
2019-03-26T12:53:06.920Z,18.00
2019-03-26T12:55:37.257Z,18.10
2019-03-26T12:58:06.612Z,18.20
2019-03-26T13:00:37.261Z,18.30
2019-03-26T13:03:09.829Z,18.40
2019-03-26T13:05:39.739Z,18.60
2019-03-26T13:08:09.426Z,18.80
2019-03-26T13:10:52.461Z,19.00
2019-03-26T13:13:09.714Z,19.20
2019-03-26T13:15:39.208Z,19.40
2019-03-26T13:18:11.090Z,19.70
2019-03-26T13:20:39.811Z,19.90
2019-03-26T13:23:09.154Z,20.20
2019-03-26T13:25:38.401Z,20.40
2019-03-26T13:28:07.720Z,20.70
2019-03-26T13:30:38.675Z,21.00
2019-03-26T13:33:08.060Z,21.10
2019-03-26T13:35:40.778Z,21.20
2019-03-26T13:38:17.313Z,21.40
2019-03-26T13:40:46.508Z,21.70
2019-03-26T13:43:17.182Z,21.90
2019-03-26T13:45:49.742Z,22.30
2019-03-26T13:48:21.425Z,22.50
2019-03-26T13:50:51.558Z,22.90
2019-03-26T13:53:20.980Z,23.10
2019-03-26T13:55:51.735Z,23.40
2019-03-26T13:58:21.042Z,23.70
2019-03-26T14:00:50.300Z,24.20
2019-03-26T14:03:21.194Z,24.60
2019-03-26T14:05:50.464Z,25.00
2019-03-26T14:08:19.861Z,25.30
2019-03-26T14:10:50.706Z,25.60
2019-03-26T14:13:20.733Z,26.00
2019-03-26T14:15:51.667Z,26.20
2019-03-26T14:18:21.219Z,26.50
2019-03-26T14:20:51.951Z,26.70
2019-03-26T14:23:22.642Z,26.80
2019-03-26T14:25:58.292Z,27.30
2019-03-26T14:28:36.297Z,27.60
2019-03-26T14:31:08.981Z,27.90
2019-03-26T14:33:41.936Z,28.10
2019-03-26T14:36:13.931Z,28.30
2019-03-26T14:38:43.234Z,28.70
2019-03-26T14:41:12.449Z,28.90
2019-03-26T14:43:41.900Z,28.90
2019-03-26T14:46:11.164Z,29.20
2019-03-26T14:48:40.328Z,29.40
2019-03-26T14:51:09.502Z,29.50
2019-03-26T14:53:38.766Z,29.60
2019-03-26T14:56:07.978Z,29.90
2019-03-26T14:58:37.200Z,29.80
2019-03-26T15:01:06.522Z,30.00
2019-03-26T15:03:35.764Z,30.20
2019-03-26T15:06:05.128Z,30.20
2019-03-26T15:08:34.315Z,30.40
2019-03-26T15:11:08.378Z,30.70
2019-03-26T15:13:36.393Z,30.90
2019-03-26T15:16:05.566Z,30.90
2019-03-26T15:18:34.870Z,31.00
2019-03-26T15:21:04.301Z,31.40
2019-03-26T15:23:33.600Z,31.40
2019-03-26T15:26:02.769Z,31.50
2019-03-26T15:28:32.027Z,31.60
2019-03-26T15:31:01.291Z,31.70
2019-03-26T15:33:40.822Z,31.80
2019-03-26T15:36:10.082Z,31.90
2019-03-26T15:39:00.045Z,32.00
2019-03-26T15:41:30.479Z,31.80
2019-03-26T15:47:25.441Z,32.30
2019-03-26T15:49:55.023Z,32.40
2019-03-26T15:52:24.345Z,33.00
2019-03-26T15:54:54.048Z,33.50
2019-03-26T15:57:23.448Z,33.70
2019-03-26T15:59:52.751Z,34.10
2019-03-26T16:02:22.213Z,34.40
2019-03-26T16:04:51.623Z,34.70
2019-03-26T16:07:21.121Z,34.90
2019-03-26T16:09:50.377Z,34.90
2019-03-26T16:12:19.610Z,34.90
2019-03-26T16:14:48.841Z,35.00
2019-03-26T16:17:18.050Z,35.00
2019-03-26T16:19:47.296Z,35.10
2019-03-26T16:22:17.869Z,34.90
2019-03-26T16:24:48.406Z,34.50
2019-03-26T16:27:17.632Z,34.20
2019-03-26T16:29:46.968Z,34.00
2019-03-26T16:32:16.255Z,33.50
2019-03-26T16:34:45.738Z,33.10
2019-03-26T16:37:15.017Z,32.60
2019-03-26T16:39:44.484Z,30.70
2019-03-26T16:42:13.920Z,28.20
2019-03-26T16:44:43.237Z,26.70
2019-03-26T16:47:12.528Z,25.60
2019-03-26T16:49:41.741Z,24.80
2019-03-26T16:52:11.041Z,24.00
2019-03-26T16:54:40.355Z,23.40
2019-03-26T16:57:09.735Z,23.00
2019-03-26T16:59:39.058Z,22.60
2019-03-26T17:02:08.274Z,22.10
2019-03-26T17:04:37.557Z,22.20
2019-03-26T17:07:08.092Z,22.70
2019-03-26T17:09:37.453Z,22.60
2019-03-26T17:12:06.753Z,22.40
2019-03-26T17:14:36.030Z,22.00
2019-03-26T17:17:05.323Z,21.40
2019-03-26T17:19:34.604Z,21.00
2019-03-26T17:22:03.983Z,20.60
2019-03-26T17:24:33.334Z,20.60
2019-03-26T17:27:02.713Z,20.30
2019-03-26T17:29:32.046Z,19.90
2019-03-26T17:32:01.492Z,19.70
2019-03-26T17:34:30.753Z,19.50
2019-03-26T17:37:00.036Z,19.20
2019-03-26T17:39:31.679Z,19.00
2019-03-26T17:42:00.252Z,18.90
2019-03-26T17:44:29.594Z,18.80
2019-03-26T17:46:58.884Z,18.60
2019-03-26T17:49:28.176Z,18.40
2019-03-26T17:51:57.607Z,18.20
2019-03-26T17:54:26.910Z,18.20
2019-03-26T17:56:56.197Z,18.10
2019-03-26T17:59:25.500Z,17.90
2019-03-26T18:01:54.709Z,17.80
2019-03-26T18:04:23.967Z,17.70
2019-03-26T18:06:53.131Z,17.60
2019-03-26T18:09:22.500Z,17.50
2019-03-26T18:11:51.682Z,17.30
2019-03-26T18:14:20.857Z,17.20
2019-03-26T18:16:50.212Z,17.10
2019-03-26T18:19:19.449Z,17.00
2019-03-26T18:21:51.662Z,16.90
2019-03-26T18:24:19.570Z,16.80
2019-03-26T18:26:48.854Z,16.70
2019-03-26T18:29:18.149Z,16.50
2019-03-26T18:31:47.521Z,16.50
2019-03-26T18:34:16.891Z,16.30
2019-03-26T18:36:46.447Z,16.20
2019-03-26T18:39:15.692Z,16.10
2019-03-26T18:41:45.351Z,16.00
2019-03-26T18:44:15.985Z,15.90
2019-03-26T18:46:45.298Z,15.80
2019-03-26T18:49:14.557Z,15.60
2019-03-26T18:51:43.959Z,15.50
2019-03-26T18:54:13.290Z,15.50
2019-03-26T18:56:42.604Z,15.40
2019-03-26T18:59:11.856Z,15.30
2019-03-26T19:01:41.216Z,15.20
2019-03-26T19:04:11.525Z,15.10
2019-03-26T19:06:40.784Z,15.00
2019-03-26T19:09:10.056Z,14.90
2019-03-26T19:11:39.373Z,14.90
2019-03-26T19:14:08.581Z,14.90
2019-03-26T19:16:37.882Z,14.80
2019-03-26T19:19:07.189Z,14.70
2019-03-26T19:21:37.685Z,14.60
2019-03-26T19:24:06.934Z,14.60
2019-03-26T19:26:36.188Z,14.50
2019-03-26T19:29:05.628Z,14.40
2019-03-26T19:31:34.802Z,14.30
2019-03-26T19:34:04.232Z,14.20
2019-03-26T19:36:33.542Z,14.10
2019-03-26T19:39:06.504Z,14.10
2019-03-26T19:41:35.769Z,14.00
2019-03-26T19:44:06.246Z,14.00
2019-03-26T19:46:35.588Z,13.90
2019-03-26T19:49:04.874Z,13.80
2019-03-26T19:51:34.120Z,13.70
2019-03-26T19:54:03.424Z,13.70
2019-03-26T19:56:32.776Z,13.60
2019-03-26T19:59:02.058Z,13.60
2019-03-26T20:01:31.358Z,13.50
2019-03-26T20:04:00.691Z,13.50
2019-03-26T20:06:30.038Z,13.50
2019-03-26T20:08:59.331Z,13.40
2019-03-26T20:11:28.883Z,13.30
2019-03-26T20:13:58.383Z,13.30
2019-03-26T20:16:36.580Z,13.20
2019-03-26T20:18:58.481Z,13.20
2019-03-26T20:21:28.859Z,13.20
2019-03-26T20:23:58.215Z,13.20
2019-03-26T20:26:27.500Z,13.10
2019-03-26T20:28:56.871Z,13.10
2019-03-26T20:31:26.297Z,13.00
2019-03-26T20:33:55.734Z,13.00
2019-03-26T20:36:25.093Z,13.00
2019-03-26T20:38:54.405Z,12.90
2019-03-26T20:41:23.807Z,12.90
2019-03-26T20:43:53.447Z,12.90
2019-03-26T20:46:22.695Z,12.90
2019-03-26T20:48:52.036Z,12.80
2019-03-26T20:51:21.343Z,12.80
2019-03-26T20:53:50.797Z,12.70
2019-03-26T20:56:20.100Z,12.60
2019-03-26T20:58:49.547Z,12.60
2019-03-26T21:01:19.416Z,12.70
2019-03-26T21:03:48.769Z,12.60
2019-03-26T21:06:19.362Z,12.50
2019-03-26T21:08:48.616Z,12.50
2019-03-26T21:11:17.868Z,12.50
2019-03-26T21:13:50.964Z,12.50
2019-03-26T21:16:20.390Z,12.60
2019-03-26T21:18:49.670Z,12.60
2019-03-26T21:21:19.251Z,12.50
2019-03-26T21:23:48.561Z,12.50
2019-03-26T21:26:18.046Z,12.50
2019-03-26T21:28:47.382Z,12.50
2019-03-26T21:31:16.620Z,12.40
2019-03-26T21:33:45.885Z,12.40
2019-03-26T21:36:15.107Z,12.40
2019-03-26T21:38:44.396Z,12.30
2019-03-26T21:41:13.818Z,12.20
2019-03-26T21:43:43.074Z,12.20
2019-03-26T21:46:12.317Z,12.20
2019-03-26T21:48:41.674Z,12.10
2019-03-26T21:51:10.851Z,12.10
2019-03-26T21:53:40.128Z,12.10
2019-03-26T21:56:09.525Z,12.10
2019-03-26T21:58:38.806Z,12.00
2019-03-26T22:01:08.142Z,12.00
2019-03-26T22:03:37.540Z,11.90
2019-03-26T22:06:06.964Z,11.90
2019-03-26T22:08:36.191Z,11.90
2019-03-26T22:11:06.860Z,11.80
2019-03-26T22:13:36.142Z,11.80
2019-03-26T22:16:05.408Z,11.80
2019-03-26T22:18:34.634Z,11.80
2019-03-26T22:21:03.833Z,11.80
2019-03-26T22:23:33.187Z,11.70
2019-03-26T22:26:02.521Z,11.70
2019-03-26T22:28:31.879Z,11.70
2019-03-26T22:31:01.187Z,11.60
2019-03-26T22:33:30.596Z,11.70
2019-03-26T22:36:00.027Z,11.60
2019-03-26T22:38:29.370Z,11.60
2019-03-26T22:40:58.674Z,11.60
2019-03-26T22:43:28.976Z,11.50
2019-03-26T22:46:17.699Z,11.60
2019-03-26T22:48:47.002Z,11.50
2019-03-26T22:51:16.235Z,11.50
2019-03-26T22:53:45.458Z,11.50
2019-03-26T22:56:14.693Z,11.50
2019-03-26T22:58:43.862Z,11.40
2019-03-26T23:01:13.149Z,11.40
2019-03-26T23:03:44.162Z,11.40
2019-03-26T23:06:13.436Z,11.30
2019-03-26T23:08:42.800Z,11.30
2019-03-26T23:11:12.285Z,11.30
2019-03-26T23:13:41.633Z,11.30
2019-03-26T23:16:10.933Z,11.20
2019-03-26T23:18:40.180Z,11.20
2019-03-26T23:21:09.411Z,11.20
2019-03-26T23:23:38.653Z,11.20
2019-03-26T23:26:07.994Z,11.20
2019-03-26T23:28:37.378Z,11.20
2019-03-26T23:31:06.710Z,11.20
2019-03-26T23:33:36.109Z,11.20
2019-03-26T23:36:05.464Z,11.20
2019-03-26T23:38:34.818Z,11.10
2019-03-26T23:41:04.252Z,11.20
2019-03-26T23:43:33.544Z,11.10
2019-03-26T23:46:02.775Z,11.10
2019-03-26T23:48:32.230Z,11.00
2019-03-26T23:51:01.466Z,11.00
2019-03-26T23:53:30.762Z,11.00
2019-03-26T23:56:00.061Z,11.00
2019-03-26T23:58:29.334Z,11.00
